Blue Ridge Highway — 3FEY4 — position and weather

sailwx.info

Track history (hours):
 
Tides and Currents Weather Stations Pressure Air Temp Water Temp Dewpoint Dewpoint Depression Visibility Wind Speed Wind Dir Waves Ship Positions

Blue Ridge Highway

Last reported at 2017-Aug-17 04:58 UTC. Time now 2017-Aug-18 23:51 UTC.
Position N 31°08' W 081°32'.

Length 180 m; draft 9.1 m.

Type: Cargo ship. MMSI: 355558000.

Date/timePositionNaut miles runAvg speedWind from/ knotsBaromVisibWave heightAir tempDewpointWater temp
2017-Aug-17 04:58N 31°08' W 081°32'3 4.3
2017-Aug-17 04:11N 31°07' W 081°28'5 9.8
2017-Aug-17 03:42N 31°08' W 081°23'212.8
2017-Aug-17 03:30N 31°06' W 081°20'510.7
2017-Aug-17 03:00N 31°03' W 081°15'3 5.7
2017-Aug-17 02:30N 31°01' W 081°13'5 9.6
2017-Aug-17 02:00N 30°59' W 081°08'1012.7
2017-Aug-17 01:14N 30°56' W 080°57'614.8
2017-Aug-17 00:49N 30°55' W 080°50'514.8
2017-Aug-17 00:30N 30°54' W 080°45'714.9
2017-Aug-17 00:00N 30°52' W 080°36'714.9
2017-Aug-16 23:30N 30°51' W 080°28'814.9
2017-Aug-16 23:00N 30°50' W 080°19'1014.6
2017-Aug-16 22:18N 30°49' W 080°07'414.4
2017-Aug-16 22:00N 30°48' W 080°02'714.0
2017-Aug-16 21:30N 30°47' W 079°54'714.2
2017-Aug-16 21:00N 30°46' W 079°46'  
Track history (hours):
 
Tides and Currents Weather Stations Pressure Air Temp Water Temp Dewpoint Dewpoint Depression Visibility Wind Speed Wind Dir Waves Ship Positions

Blue Ridge Highway

Last reported at 2017-Aug-17 04:58 UTC. Time now 2017-Aug-18 23:51 UTC.
Position N 31°08' W 081°32'.

Length 180 m; draft 9.1 m.

Type: Cargo ship. MMSI: 355558000.

Date/timePositionNaut miles runAvg speedWind from/ knotsBaromVisibWave heightAir tempDewpointWater temp
2017-Aug-17 04:58N 31°08' W 081°32'3 4.3
2017-Aug-17 04:11N 31°07' W 081°28'5 9.8
2017-Aug-17 03:42N 31°08' W 081°23'212.8
2017-Aug-17 03:30N 31°06' W 081°20'510.7
2017-Aug-17 03:00N 31°03' W 081°15'3 5.7
2017-Aug-17 02:30N 31°01' W 081°13'5 9.6
2017-Aug-17 02:00N 30°59' W 081°08'1012.7
2017-Aug-17 01:14N 30°56' W 080°57'614.8
2017-Aug-17 00:49N 30°55' W 080°50'514.8
2017-Aug-17 00:30N 30°54' W 080°45'714.9
2017-Aug-17 00:00N 30°52' W 080°36'714.9
2017-Aug-16 23:30N 30°51' W 080°28'814.9
2017-Aug-16 23:00N 30°50' W 080°19'1014.6
2017-Aug-16 22:18N 30°49' W 080°07'414.4
2017-Aug-16 22:00N 30°48' W 080°02'714.0
2017-Aug-16 21:30N 30°47' W 079°54'714.2
2017-Aug-16 21:00N 30°46' W 079°46'  

Dump ship's entire track history